Time;durP1;ratioP1;P1;durP2;ratioP2;P2;SDS_P1;SDS_P2;PMS_P1;PMS_P2;Temp;Humidity;BMP_temperature;BMP_pressure;BME280_temperature;BME280_humidity;BME280_pressure;Samples;Min_cycle;Max_cycle;Signal;HPM_P1;HPM_P2
2022/10/05 00:01:51;;;;;;;;;;;;;;;16.34;57.82;100821.72;4936053;28;8422;-82
2022/10/05 00:04:27;;;;;;;;;;;;;;;16.33;57.97;100814.78;4947729;28;6966;-81
2022/10/05 00:07:07;;;;;;;;;;;;;;;16.31;58.26;100821.59;4946719;28;8425;-81
2022/10/05 00:09:33;;;;;;;;;;;;;;;16.31;58.27;100821.59;4945152;28;6812;-80
2022/10/05 00:12:18;;;;;;;;;;;;;;;16.32;58.36;100818.16;4929306;28;8561;-82
2022/10/05 00:14:48;;;;;;;;;;;;;;;16.30;58.83;100810.38;4947282;28;7215;-80
2022/10/05 00:17:24;;;;;;;;;;;;;;;16.33;58.65;100812.19;4944932;28;7219;-81
2022/10/05 00:19:51;;;;;;;;;;;;;;;16.35;59.27;100805.34;4911014;28;8697;-80
2022/10/05 00:22:20;;;;;;;;;;;;;;;16.40;59.45;100808.94;4943299;28;7048;-81
2022/10/05 00:24:50;;;;;;;;;;;;;;;16.44;59.07;100796.97;4944991;28;7272;-80
2022/10/05 00:27:19;;;;;;;;;;;;;;;16.45;58.77;100791.88;4937660;28;7286;-80
2022/10/05 00:29:51;;;;;;;;;;;;;;;16.49;58.69;100790.25;4944940;28;8729;-81
2022/10/05 00:32:17;;;;;;;;;;;;;;;16.51;58.51;100789.47;4943123;28;7481;-82
2022/10/05 00:34:44;;;;;;;;;;;;;;;16.56;59.03;100786.13;4936376;28;6939;-80
2022/10/05 00:37:12;;;;;;;;;;;;;;;16.58;58.87;100792.22;4933004;28;6978;-82
2022/10/05 00:39:40;;;;;;;;;;;;;;;16.60;59.45;100787.97;4935956;28;6977;-82
2022/10/05 00:42:50;;;;;;;;;;;;;;;16.63;59.03;100794.09;4925051;28;8687;-80
2022/10/05 00:45:30;;;;;;;;;;;;;;;16.63;58.80;100794.09;4946769;28;6850;-80
2022/10/05 00:48:17;;;;;;;;;;;;;;;16.68;59.16;100790.78;4936872;28;8816;-83
2022/10/05 00:51:28;;;;;;;;;;;;;;;16.70;58.79;100794.31;4925325;28;8456;-80
2022/10/05 00:54:12;;;;;;;;;;;;;;;16.72;59.07;100800.41;4944188;28;7217;-81
2022/10/05 00:57:05;;;;;;;;;;;;;;;16.74;58.98;100809.06;4946859;28;8446;-81
2022/10/05 00:59:44;;;;;;;;;;;;;;;16.75;58.72;100803.06;4945802;28;7289;-81
2022/10/05 01:02:34;;;;;;;;;;;;;;;16.76;58.62;100804.84;4947772;28;7275;-80
2022/10/05 01:05:50;;;;;;;;;;;;;;;16.79;59.00;100810.97;4941438;28;6992;-80
2022/10/05 01:08:42;;;;;;;;;;;;;;;16.79;58.85;100810.97;4943225;28;6882;-81
2022/10/05 01:11:19;;;;;;;;;;;;;;;16.77;59.04;100810.03;4941988;28;7358;-80
2022/10/05 01:14:09;;;;;;;;;;;;;;;16.76;58.63;100794.50;4935410;28;8959;-82
2022/10/05 01:16:58;;;;;;;;;;;;;;;16.75;58.70;100792.72;4943294;28;8354;-79
2022/10/05 01:20:07;;;;;;;;;;;;;;;16.71;58.66;100790.88;4947232;28;7236;-80
2022/10/05 01:22:57;;;;;;;;;;;;;;;16.66;58.72;100785.56;4944268;28;7017;-80
2022/10/05 01:25:54;;;;;;;;;;;;;;;16.63;58.55;100782.91;4946029;28;7556;-80
2022/10/05 01:28:39;;;;;;;;;;;;;;;16.61;59.22;100779.38;4946319;28;7236;-80
2022/10/05 01:31:27;;;;;;;;;;;;;;;16.59;58.71;100775.88;4937635;28;7182;-80
2022/10/05 01:34:09;;;;;;;;;;;;;;;16.58;58.87;100780.19;4935224;29;8635;-80
2022/10/05 01:37:05;;;;;;;;;;;;;;;16.58;59.08;100774.09;4926427;28;7248;-80
2022/10/05 01:40:09;;;;;;;;;;;;;;;16.56;58.96;100776.63;4927533;28;8728;-79
2022/10/05 01:43:05;;;;;;;;;;;;;;;16.54;59.29;100777.44;4928272;29;8888;-81
2022/10/05 01:46:21;;;;;;;;;;;;;;;16.52;58.83;100769.63;4946568;28;8491;-80
2022/10/05 01:49:21;;;;;;;;;;;;;;;16.49;59.12;100762.66;4938559;28;7034;-80
2022/10/05 01:52:08;;;;;;;;;;;;;;;16.47;59.32;100764.31;4943711;28;8488;-80
2022/10/05 01:55:04;;;;;;;;;;;;;;;16.46;59.39;100765.16;4948956;28;6993;-82
2022/10/05 01:57:55;;;;;;;;;;;;;;;16.45;59.18;100760.81;4946336;28;7019;-82
2022/10/05 02:00:20;;;;;;;;;;;;;;;16.44;59.07;100750.41;4945011;28;6995;-79
2022/10/05 02:02:56;;;;;;;;;;;;;;;16.45;59.32;100762.50;4946253;28;7009;-82
2022/10/05 02:05:42;;;;;;;;;;;;;;;16.47;59.52;100769.50;4946574;28;7243;-81
2022/10/05 02:08:30;;;;;;;;;;;;;;;16.50;59.29;100758.38;4935234;28;7175;-80
2022/10/05 02:11:08;;;;;;;;;;;;;;;16.55;59.28;100764.53;4949318;28;7100;-81
2022/10/05 02:14:06;;;;;;;;;;;;;;;16.62;59.59;100765.63;4930774;28;7243;-80
2022/10/05 02:16:39;;;;;;;;;;;;;;;16.66;59.90;100764.88;4945809;28;8711;-80
2022/10/05 02:19:31;;;;;;;;;;;;;;;16.71;59.71;100755.53;4928201;29;8401;-80
2022/10/05 02:22:37;;;;;;;;;;;;;;;16.74;59.44;100757.31;4947400;28;7556;-79
2022/10/05 02:25:12;;;;;;;;;;;;;;;16.75;59.09;100752.19;4938164;28;6996;-80
2022/10/05 02:27:54;;;;;;;;;;;;;;;16.80;59.44;100748.03;4948500;28;7864;-80
2022/10/05 02:30:20;;;;;;;;;;;;;;;16.85;59.13;100749.84;4945332;28;7275;-81
2022/10/05 02:32:58;;;;;;;;;;;;;;;16.89;58.99;100749.09;4933760;29;8448;-81
2022/10/05 02:35:25;;;;;;;;;;;;;;;16.94;59.52;100747.53;4943900;28;8393;-80
2022/10/05 02:38:00;;;;;;;;;;;;;;;16.99;59.67;100739.88;4938942;28;8395;-80
2022/10/05 02:41:07;;;;;;;;;;;;;;;17.05;59.07;100737.50;4946483;28;6995;-81
2022/10/05 02:44:06;;;;;;;;;;;;;;;17.10;59.53;100735.03;4948898;28;7235;-80
2022/10/05 02:46:56;;;;;;;;;;;;;;;17.15;59.07;100729.13;4947114;28;7252;-80
2022/10/05 02:49:55;;;;;;;;;;;;;;;17.17;59.12;100726.56;4930947;28;8566;-80
2022/10/05 02:52:51;;;;;;;;;;;;;;;17.17;58.59;100713.63;4934620;28;8490;-81
2022/10/05 02:55:34;;;;;;;;;;;;;;;17.17;59.13;100708.44;4946263;28;7202;-79
2022/10/05 02:58:19;;;;;;;;;;;;;;;17.16;58.71;100712.75;4941101;28;8536;-79
2022/10/05 03:01:10;;;;;;;;;;;;;;;17.18;59.14;100705.91;4941826;28;7391;-79
2022/10/05 03:03:53;;;;;;;;;;;;;;;17.22;58.99;100709.44;4927261;28;8784;-79
2022/10/05 03:06:29;;;;;;;;;;;;;;;17.28;59.32;100701.81;4933002;28;6845;-79
2022/10/05 03:09:03;;;;;;;;;;;;;;;17.33;58.71;100695.06;4945166;28;7224;-79
2022/10/05 03:11:59;;;;;;;;;;;;;;;17.39;58.55;100693.47;4940716;28;7196;-80
2022/10/05 03:14:34;;;;;;;;;;;;;;;17.42;58.68;100698.72;4939325;28;7053;-79
2022/10/05 03:17:22;;;;;;;;;;;;;;;17.45;58.99;100691.00;4946110;28;6950;-79
2022/10/05 03:20:21;;;;;;;;;;;;;;;17.50;58.63;100692.00;4923430;28;9048;-78
2022/10/05 03:23:03;;;;;;;;;;;;;;;17.54;58.33;100685.19;4921544;28;8552;-80
2022/10/05 03:26:01;;;;;;;;;;;;;;;17.58;58.32;100685.28;4942106;28;6804;-79
2022/10/05 03:28:38;;;;;;;;;;;;;;;17.58;58.24;100680.13;4939713;28;7015;-80
2022/10/05 03:31:27;;;;;;;;;;;;;;;17.59;58.12;100674.09;4938913;28;6968;-79
2022/10/05 03:34:19;;;;;;;;;;;;;;;17.56;57.90;100674.00;4942733;28;6864;-81
2022/10/05 03:37:01;;;;;;;;;;;;;;;17.52;58.14;100669.59;4941989;28;6985;-79
2022/10/05 03:40:19;;;;;;;;;;;;;;;17.47;57.62;100668.59;4941237;28;7216;-80
2022/10/05 03:43:18;;;;;;;;;;;;;;;17.38;57.68;100663.19;4924859;28;8993;-79
2022/10/05 03:45:55;;;;;;;;;;;;;;;17.33;57.96;100669.16;4939945;28;7021;-75
2022/10/05 03:49:30;;;;;;;;;;;;;;;17.27;58.02;100662.94;4938409;28;8463;-79
2022/10/05 03:52:06;;;;;;;;;;;;;;;17.19;57.50;100663.63;4904735;29;7026;-79
2022/10/05 03:54:49;;;;;;;;;;;;;;;17.14;58.17;100662.66;4908143;29;7006;-79
2022/10/05 03:57:20;;;;;;;;;;;;;;;17.10;57.90;100662.53;4937050;28;7001;-79
2022/10/05 04:00:11;;;;;;;;;;;;;;;17.06;58.28;100657.25;4939223;28;6800;-79
2022/10/05 04:03:06;;;;;;;;;;;;;;;17.00;58.24;100658.78;4940069;28;11390;-80
2022/10/05 04:05:59;;;;;;;;;;;;;;;16.95;58.82;100666.44;4927666;28;9837;-78
2022/10/05 04:08:39;;;;;;;;;;;;;;;16.92;58.53;100672.38;4930289;28;7107;-75
2022/10/05 04:11:34;;;;;;;;;;;;;;;16.92;58.83;100658.59;4937936;28;6965;-79
2022/10/05 04:14:09;;;;;;;;;;;;;;;16.93;59.15;100666.38;4933669;28;6816;-80
2022/10/05 04:16:48;;;;;;;;;;;;;;;16.94;58.77;100659.50;4926549;28;7298;-78
2022/10/05 04:19:43;;;;;;;;;;;;;;;16.91;58.50;100655.13;4940802;28;6804;-78
2022/10/05 04:22:21;;;;;;;;;;;;;;;16.87;58.74;100657.59;4942636;28;7370;-78
2022/10/05 04:25:07;;;;;;;;;;;;;;;16.85;58.53;100659.25;4937174;28;7011;-78
2022/10/05 04:27:51;;;;;;;;;;;;;;;16.79;58.58;100660.84;4942750;28;7403;-78
2022/10/05 04:30:19;;;;;;;;;;;;;;;16.74;58.46;100652.09;4939871;28;6969;-79
2022/10/05 04:32:59;;;;;;;;;;;;;;;16.71;58.89;100654.59;4938068;28;6952;-80
2022/10/05 04:36:11;;;;;;;;;;;;;;;16.69;58.85;100656.25;4939163;28;8473;-80
2022/10/05 04:39:13;;;;;;;;;;;;;;;16.68;58.96;100653.63;4942886;28;7048;-78
2022/10/05 04:42:09;;;;;;;;;;;;;;;16.72;59.07;100663.22;4939479;28;7154;-78
2022/10/05 04:45:27;;;;;;;;;;;;;;;16.79;59.21;100659.97;4940786;28;7077;-79
2022/10/05 04:48:19;;;;;;;;;;;;;;;16.88;59.32;100660.22;4938834;28;8715;-76
2022/10/05 04:51:04;;;;;;;;;;;;;;;16.96;59.50;100659.56;4938268;28;7116;-75
2022/10/05 04:53:44;;;;;;;;;;;;;;;17.02;59.12;100658.03;4937784;28;7200;-76
2022/10/05 04:56:56;;;;;;;;;;;;;;;17.10;59.42;100657.34;4934096;28;7176;-76
2022/10/05 05:00:01;;;;;;;;;;;;;;;17.14;58.98;100660.06;4941987;28;7087;-75
2022/10/05 05:02:48;;;;;;;;;;;;;;;17.22;59.14;100660.25;4927717;28;8464;-76
2022/10/05 05:05:59;;;;;;;;;;;;;;;17.29;58.80;100658.66;4940884;28;7000;-75
2022/10/05 05:08:55;;;;;;;;;;;;;;;17.31;58.86;100657.88;4940078;28;6812;-75
2022/10/05 05:11:59;;;;;;;;;;;;;;;17.37;58.58;100654.56;4937755;28;6847;-76
2022/10/05 05:14:52;;;;;;;;;;;;;;;17.40;58.84;100657.22;4940051;28;7240;-77
2022/10/05 05:17:49;;;;;;;;;;;;;;;17.43;58.27;100659.91;4937867;28;7032;-77
2022/10/05 05:21:03;;;;;;;;;;;;;;;17.51;58.70;100652.28;4938547;28;6991;-76
2022/10/05 05:23:57;;;;;;;;;;;;;;;17.57;58.22;100654.16;4885284;29;7138;-78
2022/10/05 05:26:48;;;;;;;;;;;;;;;17.62;58.56;100661.19;4921281;28;6800;-77
2022/10/05 05:29:42;;;;;;;;;;;;;;;17.69;58.31;100656.16;4936671;28;7223;-76
2022/10/05 05:32:41;;;;;;;;;;;;;;;17.77;58.11;100657.22;4935739;28;7305;-76
2022/10/05 05:35:35;;;;;;;;;;;;;;;17.81;58.50;100653.84;4941511;28;7275;-76
2022/10/05 05:38:35;;;;;;;;;;;;;;;17.88;58.20;100654.84;4924267;28;8479;-78
2022/10/05 05:41:21;;;;;;;;;;;;;;;17.91;57.86;100657.47;4903914;28;7282;-77
2022/10/05 05:44:20;;;;;;;;;;;;;;;17.97;57.73;100657.63;4938053;28;8482;-77
2022/10/05 05:47:19;;;;;;;;;;;;;;;18.05;57.59;100665.59;4937549;28;8604;-77
2022/10/05 05:50:23;;;;;;;;;;;;;;;18.09;57.91;100659.66;4934313;28;7876;-79
2022/10/05 05:53:20;;;;;;;;;;;;;;;18.15;57.60;100654.56;4936808;28;6982;-76
2022/10/05 05:56:13;;;;;;;;;;;;;;;18.24;57.51;100655.63;4935046;28;8434;-77
2022/10/05 05:58:53;;;;;;;;;;;;;;;18.30;57.04;100664.41;4938555;28;8485;-77
2022/10/05 06:02:08;;;;;;;;;;;;;;;18.37;57.21;100659.34;4938955;28;7232;-78
2022/10/05 06:04:44;;;;;;;;;;;;;;;18.41;57.37;100659.44;4901649;29;8481;-82
2022/10/05 06:07:22;;;;;;;;;;;;;;;18.47;56.91;100656.06;4899207;29;9066;-78
2022/10/05 06:10:11;;;;;;;;;;;;;;;18.54;56.87;100663.16;4934077;28;9018;-78
2022/10/05 06:12:46;;;;;;;;;;;;;;;18.60;56.28;100654.59;4939172;28;8448;-78
2022/10/05 06:15:35;;;;;;;;;;;;;;;18.64;56.30;100659.03;4922415;29;8389;-82
2022/10/05 06:18:15;;;;;;;;;;;;;;;18.70;56.31;100666.91;4929199;29;8394;-79
2022/10/05 06:21:03;;;;;;;;;;;;;;;18.75;56.21;100661.78;4940853;28;6812;-78
2022/10/05 06:24:01;;;;;;;;;;;;;;;18.82;55.92;100665.38;4940485;28;9369;-82
2022/10/05 06:26:42;;;;;;;;;;;;;;;18.86;55.94;100662.00;4942861;28;7019;-79
2022/10/05 06:29:19;;;;;;;;;;;;;;;18.92;55.80;100661.22;4943515;28;7266;-78
2022/10/05 06:32:13;;;;;;;;;;;;;;;18.98;55.69;100659.63;4936909;28;8915;-77
2022/10/05 06:35:03;;;;;;;;;;;;;;;19.04;55.57;100650.22;4944932;28;7677;-79
2022/10/05 06:38:19;;;;;;;;;;;;;;;19.08;55.86;100657.22;4940429;28;6876;-78
2022/10/05 06:40:58;;;;;;;;;;;;;;;19.11;55.79;100662.44;4940914;28;6888;-77
2022/10/05 06:43:29;;;;;;;;;;;;;;;19.18;55.66;100653.91;4925772;28;8474;-77
2022/10/05 06:46:35;;;;;;;;;;;;;;;19.23;55.41;100657.47;4941417;28;8425;-77
2022/10/05 06:50:02;;;;;;;;;;;;;;;19.28;54.55;100654.97;4909607;28;7203;-79
2022/10/05 06:52:53;;;;;;;;;;;;;;;19.30;54.56;100655.84;4908681;29;9153;-77
2022/10/05 06:55:56;;;;;;;;;;;;;;;19.34;54.61;100657.63;4921648;28;7218;-77
2022/10/05 06:58:46;;;;;;;;;;;;;;;19.37;54.22;100651.63;4941579;28;7061;-78
2022/10/05 07:01:31;;;;;;;;;;;;;;;19.40;54.20;100652.53;4939910;28;6949;-77
2022/10/05 07:04:24;;;;;;;;;;;;;;;19.46;54.54;100648.28;4939926;28;8568;-78
2022/10/05 07:06:58;;;;;;;;;;;;;;;19.52;54.48;100644.06;4937017;28;7010;-77
2022/10/05 07:09:51;;;;;;;;;;;;;;;19.57;54.19;100644.13;4939300;28;8485;-77
2022/10/05 07:13:08;;;;;;;;;;;;;;;19.63;54.04;100630.34;4942669;28;7299;-78
2022/10/05 07:16:08;;;;;;;;;;;;;;;19.67;53.61;100632.13;4930879;28;8524;-77
2022/10/05 07:19:16;;;;;;;;;;;;;;;19.75;53.48;100635.72;4942453;28;6812;-78
2022/10/05 07:22:19;;;;;;;;;;;;;;;19.79;53.80;100627.09;4939018;28;7491;-77
2022/10/05 07:25:19;;;;;;;;;;;;;;;19.84;53.10;100625.44;4940822;28;8664;-77
2022/10/05 07:28:08;;;;;;;;;;;;;;;19.85;52.87;100619.38;4937973;28;7000;-78
2022/10/05 07:31:01;;;;;;;;;;;;;;;19.91;52.79;100626.38;4941722;28;8442;-77
2022/10/05 07:34:06;;;;;;;;;;;;;;;19.97;52.81;100620.41;4942918;28;7206;-77
2022/10/05 07:39:59;;;;;;;;;;;;;;;20.11;53.16;100624.09;4941115;28;6976;-78
2022/10/05 07:42:51;;;;;;;;;;;;;;;20.25;52.54;100625.97;4932340;28;7121;-81
2022/10/05 07:46:01;;;;;;;;;;;;;;;20.37;52.37;100627.84;4940725;28;6822;-77
2022/10/05 07:48:46;;;;;;;;;;;;;;;20.48;52.49;100633.16;4929816;28;7054;-79
2022/10/05 07:51:40;;;;;;;;;;;;;;;20.60;52.28;100638.50;4931006;28;8489;-77
2022/10/05 07:54:36;;;;;;;;;;;;;;;20.74;52.02;100637.75;4939374;28;7217;-78
2022/10/05 07:57:14;;;;;;;;;;;;;;;20.84;51.46;100630.94;4942596;28;8528;-77
2022/10/05 07:59:59;;;;;;;;;;;;;;;20.89;51.52;100619.72;4934994;28;8471;-79
2022/10/05 08:02:43;;;;;;;;;;;;;;;20.94;51.27;100631.03;4940220;28;6990;-79
2022/10/05 08:05:22;;;;;;;;;;;;;;;21.01;51.20;100634.59;4939001;28;7645;-80
2022/10/05 08:08:01;;;;;;;;;;;;;;;21.07;50.95;100633.75;4942679;28;7289;-78
2022/10/05 08:10:45;;;;;;;;;;;;;;;21.12;50.59;100632.03;4934907;28;7263;-78
2022/10/05 08:13:57;;;;;;;;;;;;;;;21.22;50.75;100640.81;4942704;28;7370;-79
2022/10/05 08:16:32;;;;;;;;;;;;;;;21.28;50.49;100647.81;4940481;28;7019;-79
2022/10/05 08:19:40;;;;;;;;;;;;;;;21.33;50.28;100647.00;4921472;28;7137;-81
2022/10/05 08:22:30;;;;;;;;;;;;;;;21.39;50.06;100640.94;4931547;28;6992;-80
2022/10/05 08:25:13;;;;;;;;;;;;;;;21.45;49.80;100633.19;4943360;28;6808;-80
2022/10/05 08:28:08;;;;;;;;;;;;;;;21.54;50.00;100634.09;4939506;28;8806;-79
2022/10/05 08:31:07;;;;;;;;;;;;;;;21.59;49.59;100635.88;4932147;28;8745;-81
2022/10/05 08:33:57;;;;;;;;;;;;;;;21.67;49.29;100635.94;4938100;28;7278;-79
2022/10/05 08:37:02;;;;;;;;;;;;;;;21.75;49.12;100630.75;4926848;28;7393;-80
2022/10/05 08:39:39;;;;;;;;;;;;;;;21.80;48.96;100636.00;4940130;28;8090;-81
2022/10/05 08:42:46;;;;;;;;;;;;;;;21.86;48.86;100636.03;4916609;28;8474;-80
2022/10/05 08:45:33;;;;;;;;;;;;;;;21.95;48.65;100637.81;4917842;28;7197;-79
2022/10/05 08:48:29;;;;;;;;;;;;;;;22.00;48.69;100639.56;4940901;28;7235;-79
2022/10/05 08:51:04;;;;;;;;;;;;;;;22.03;48.30;100634.41;4936602;28;7537;-79
2022/10/05 08:54:01;;;;;;;;;;;;;;;22.06;48.48;100629.19;4937969;28;8547;-81
2022/10/05 08:56:32;;;;;;;;;;;;;;;22.08;47.83;100625.69;4939697;28;7580;-80
2022/10/05 08:59:03;;;;;;;;;;;;;;;22.12;47.79;100624.84;4941197;28;7170;-79
2022/10/05 09:02:04;;;;;;;;;;;;;;;22.17;47.91;100624.00;4942548;28;7219;-80
2022/10/05 09:05:12;;;;;;;;;;;;;;;22.22;48.12;100620.53;4937140;28;7221;-80
2022/10/05 09:08:21;;;;;;;;;;;;;;;22.25;47.63;100624.03;4938755;28;6976;-79
2022/10/05 09:11:11;;;;;;;;;;;;;;;22.28;47.94;100612.72;4940555;28;8427;-81
2022/10/05 09:14:04;;;;;;;;;;;;;;;22.31;47.42;100626.66;4935832;28;7198;-80
2022/10/05 09:16:49;;;;;;;;;;;;;;;22.36;47.43;100626.69;4928143;28;8796;-79
2022/10/05 09:19:27;;;;;;;;;;;;;;;22.40;47.67;100627.53;4911827;28;8456;-79
2022/10/05 09:22:12;;;;;;;;;;;;;;;22.43;47.09;100627.56;4926501;28;8427;-81
2022/10/05 09:24:57;;;;;;;;;;;;;;;22.41;46.77;100616.25;4938667;28;9369;-82
2022/10/05 09:27:32;;;;;;;;;;;;;;;22.39;46.79;100620.56;4937739;28;7061;-80
2022/10/05 09:30:24;;;;;;;;;;;;;;;22.37;47.16;100625.81;4938363;28;7052;-81
2022/10/05 09:33:32;;;;;;;;;;;;;;;22.36;46.70;100637.13;4930193;28;11310;-80
2022/10/05 09:36:23;;;;;;;;;;;;;;;22.36;46.85;100631.00;4941328;28;8545;-81
2022/10/05 09:39:40;;;;;;;;;;;;;;;22.34;47.06;100634.50;4939021;28;7280;-79
2022/10/05 09:42:31;;;;;;;;;;;;;;;22.34;46.79;100626.66;4940695;28;7052;-79
2022/10/05 09:45:23;;;;;;;;;;;;;;;22.33;46.56;100629.25;4936851;28;7262;-79
2022/10/05 09:48:20;;;;;;;;;;;;;;;22.37;46.80;100617.09;4939930;28;8927;-80
2022/10/05 09:51:30;;;;;;;;;;;;;;;22.42;46.77;100624.06;4942625;28;7091;-79
2022/10/05 09:54:15;;;;;;;;;;;;;;;22.52;47.17;100617.16;4936007;28;7323;-80
2022/10/05 09:57:12;;;;;;;;;;;;;;;22.63;46.58;100608.47;4941496;28;7244;-79
2022/10/05 10:00:07;;;;;;;;;;;;;;;22.69;46.41;100606.75;4947303;28;6816;-79
2022/10/05 10:02:42;;;;;;;;;;;;;;;22.75;46.36;100603.25;4945300;28;7236;-78
2022/10/05 10:05:32;;;;;;;;;;;;;;;22.85;46.22;100597.16;4945394;28;6824;-77
2022/10/05 10:08:28;;;;;;;;;;;;;;;22.97;45.73;100587.56;4945497;28;7131;-79
2022/10/05 10:11:06;;;;;;;;;;;;;;;23.03;46.18;100593.69;4947622;28;7023;-79
2022/10/05 10:13:44;;;;;;;;;;;;;;;23.16;46.26;100591.91;4935693;28;7280;-77
2022/10/05 10:16:42;;;;;;;;;;;;;;;23.33;45.58;100596.28;4944901;28;8639;-78
2022/10/05 10:19:58;;;;;;;;;;;;;;;23.54;45.49;100591.88;4946132;28;7228;-78
2022/10/05 10:23:12;;;;;;;;;;;;;;;23.77;45.44;100590.97;4950301;28;7355;-76
2022/10/05 10:26:38;;;;;;;;;;;;;;;23.93;44.85;100592.63;4911465;28;7312;-80
2022/10/05 10:29:30;;;;;;;;;;;;;;;24.06;44.55;100584.75;4925426;28;8721;-81
2022/10/05 10:32:13;;;;;;;;;;;;;;;24.22;44.10;100577.69;4942229;28;8584;-79
2022/10/05 10:35:06;;;;;;;;;;;;;;;24.62;43.73;100573.91;4940986;28;7217;-81
2022/10/05 10:38:11;;;;;;;;;;;;;;;25.14;42.70;100567.38;4946023;28;7208;-80
2022/10/05 10:40:58;;;;;;;;;;;;;;;25.48;41.78;100568.78;4941971;28;8659;-80
2022/10/05 10:44:12;;;;;;;;;;;;;;;25.48;41.18;100563.53;4946045;28;7244;-79
2022/10/05 10:47:00;;;;;;;;;;;;;;;25.56;41.66;100571.34;4943551;28;8746;-79
2022/10/05 10:49:47;;;;;;;;;;;;;;;25.82;41.26;100562.28;4945290;28;7234;-80
2022/10/05 10:52:39;;;;;;;;;;;;;;;25.96;40.54;100564.72;4941946;28;8426;-81
2022/10/05 10:55:29;;;;;;;;;;;;;;;26.06;40.84;100553.19;4945537;28;7193;-79
2022/10/05 10:58:07;;;;;;;;;;;;;;;26.41;39.88;100553.59;4947744;28;6943;-81
2022/10/05 11:00:53;;;;;;;;;;;;;;;26.71;39.76;100520.69;4925404;28;9029;-81
2022/10/05 11:04:00;;;;;;;;;;;;;;;27.18;39.23;100551.47;4943365;28;8464;-80
2022/10/05 11:06:59;;;;;;;;;;;;;;;27.59;38.81;100554.22;4944441;28;7075;-79
2022/10/05 11:10:09;;;;;;;;;;;;;;;28.25;38.57;100528.22;4933284;28;8916;-80
2022/10/05 11:12:57;;;;;;;;;;;;;;;29.07;37.29;100527.94;4927093;28;7442;-81
2022/10/05 11:15:43;;;;;;;;;;;;;;;29.79;36.21;100516.22;4940597;28;7397;-81
2022/10/05 11:18:14;;;;;;;;;;;;;;;30.26;35.69;100513.91;4942978;28;6806;-79
2022/10/05 11:21:08;;;;;;;;;;;;;;;30.63;34.14;100508.28;4945413;28;7135;-80
2022/10/05 11:24:05;;;;;;;;;;;;;;;30.96;34.15;100501.00;4942694;28;7236;-80
2022/10/05 11:27:18;;;;;;;;;;;;;;;31.31;33.86;100493.59;4939407;28;8440;-79
2022/10/05 11:30:12;;;;;;;;;;;;;;;31.59;32.75;100493.41;4939077;28;8454;-78
2022/10/05 11:33:17;;;;;;;;;;;;;;;31.75;32.37;100479.56;4941435;28;11835;-80
2022/10/05 11:36:12;;;;;;;;;;;;;;;31.83;31.72;100484.59;4941981;28;8468;-80
2022/10/05 11:39:21;;;;;;;;;;;;;;;32.14;31.93;100468.31;4938603;28;8429;-82
2022/10/05 11:42:21;;;;;;;;;;;;;;;32.27;31.17;100466.00;4943274;28;7198;-79
2022/10/05 11:45:10;;;;;;;;;;;;;;;32.29;30.87;100460.63;4940709;28;7245;-78
2022/10/05 11:48:06;;;;;;;;;;;;;;;32.41;31.09;100443.38;4939911;28;7203;-78
2022/10/05 11:51:02;;;;;;;;;;;;;;;32.60;31.05;100443.44;4940477;28;7238;-81
2022/10/05 11:53:52;;;;;;;;;;;;;;;32.67;30.36;100444.03;4939871;28;6998;-79
2022/10/05 11:56:24;;;;;;;;;;;;;;;32.78;30.65;100433.78;4939536;28;7865;-79
2022/10/05 11:59:33;;;;;;;;;;;;;;;32.93;29.76;100428.75;4938509;28;8755;-81
2022/10/05 12:02:41;;;;;;;;;;;;;;;33.03;29.85;100427.41;4934845;28;8490;-78
2022/10/05 12:05:31;;;;;;;;;;;;;;;33.13;29.84;100421.66;4940533;28;7175;-79
2022/10/05 12:08:41;;;;;;;;;;;;;;;33.35;29.32;100424.16;4942214;28;8479;-81
2022/10/05 12:11:44;;;;;;;;;;;;;;;33.16;28.13;100411.75;4933302;28;7177;-79
2022/10/05 12:14:52;;;;;;;;;;;;;;;32.13;28.87;100402.09;4941307;28;7221;-83
2022/10/05 12:17:28;;;;;;;;;;;;;;;30.81;29.96;100402.78;4929711;28;8796;-80
2022/10/05 12:20:01;;;;;;;;;;;;;;;29.75;31.17;100398.41;4945107;28;7253;-79
2022/10/05 12:22:45;;;;;;;;;;;;;;;28.94;32.84;100403.41;4940335;28;7309;-81
2022/10/05 12:25:35;;;;;;;;;;;;;;;28.28;33.46;100395.50;4927205;28;6970;-79
2022/10/05 12:28:19;;;;;;;;;;;;;;;27.80;34.31;100408.06;4940261;28;8807;-80
2022/10/05 12:31:11;;;;;;;;;;;;;;;27.44;35.13;100385.16;4929230;28;7137;-81
2022/10/05 12:33:49;;;;;;;;;;;;;;;27.15;35.50;100398.97;4921747;28;6987;-80
2022/10/05 12:36:30;;;;;;;;;;;;;;;26.94;35.71;100398.50;4942052;28;6994;-79
2022/10/05 12:39:03;;;;;;;;;;;;;;;26.73;36.06;100379.59;4926546;28;6824;-78
2022/10/05 12:42:22;;;;;;;;;;;;;;;26.60;36.21;100376.34;4940251;28;7021;-79
2022/10/05 12:45:25;;;;;;;;;;;;;;;26.48;36.66;100372.19;4936521;28;7314;-80
2022/10/05 12:48:06;;;;;;;;;;;;;;;26.42;37.10;100369.66;4934885;28;6978;-79
2022/10/05 12:50:45;;;;;;;;;;;;;;;26.40;37.44;100360.09;4937423;28;8619;-78
2022/10/05 12:53:47;;;;;;;;;;;;;;;26.40;37.52;100360.97;4935740;28;7265;-79
2022/10/05 12:56:40;;;;;;;;;;;;;;;26.41;37.83;100352.19;4939337;28;6863;-82
2022/10/05 12:59:24;;;;;;;;;;;;;;;26.44;37.69;100343.38;4937085;28;8561;-79
2022/10/05 13:02:44;;;;;;;;;;;;;;;26.43;37.63;100345.13;4930054;28;8553;-79
2022/10/05 13:05:09;;;;;;;;;;;;;;;26.41;37.69;100349.56;4937469;28;8767;-82
2022/10/05 13:07:56;;;;;;;;;;;;;;;26.40;37.88;100339.94;4938452;28;7221;-79
2022/10/05 13:10:37;;;;;;;;;;;;;;;26.36;37.81;100333.00;4943497;28;7208;-79
2022/10/05 13:13:27;;;;;;;;;;;;;;;26.33;37.66;100333.06;4941821;28;7260;-77
2022/10/05 13:16:18;;;;;;;;;;;;;;;26.34;37.82;100333.03;4938512;28;7642;-78
2022/10/05 13:19:26;;;;;;;;;;;;;;;26.34;37.93;100330.41;4939482;28;9018;-79
2022/10/05 13:22:22;;;;;;;;;;;;;;;26.32;37.47;100326.97;4906672;28;8596;-80
2022/10/05 13:25:24;;;;;;;;;;;;;;;26.27;37.43;100310.41;4927159;28;7426;-79
2022/10/05 13:28:19;;;;;;;;;;;;;;;26.28;37.80;100313.91;4908001;28;8734;-77
2022/10/05 13:31:23;;;;;;;;;;;;;;;26.25;37.91;100319.19;4937502;28;7351;-78
2022/10/05 13:34:17;;;;;;;;;;;;;;;26.24;37.78;100322.72;4925067;28;7035;-77
2022/10/05 13:37:23;;;;;;;;;;;;;;;26.23;37.98;100326.25;4938241;28;7404;-77
2022/10/05 13:40:27;;;;;;;;;;;;;;;26.23;37.91;100315.75;4925886;28;6993;-78
2022/10/05 13:43:05;;;;;;;;;;;;;;;26.22;37.75;100298.25;4940166;28;7205;-77
2022/10/05 13:45:50;;;;;;;;;;;;;;;26.23;37.63;100314.00;4916803;28;8529;-79
2022/10/05 13:49:17;;;;;;;;;;;;;;;26.22;37.66;100324.53;4922696;28;8475;-77
2022/10/05 13:51:59;;;;;;;;;;;;;;;26.19;38.20;100326.31;4918367;28;7259;-77
2022/10/05 13:54:41;;;;;;;;;;;;;;;26.22;38.04;100324.53;4923792;28;7215;-77
2022/10/05 13:57:24;;;;;;;;;;;;;;;26.23;38.41;100326.25;4939259;28;7269;-77
2022/10/05 13:59:59;;;;;;;;;;;;;;;26.24;38.53;100328.84;4939847;28;7313;-77
2022/10/05 14:02:48;;;;;;;;;;;;;;;26.24;38.74;100317.47;4937735;28;7108;-77
2022/10/05 14:05:24;;;;;;;;;;;;;;;26.24;38.58;100330.59;4918912;28;6800;-81
2022/10/05 14:08:16;;;;;;;;;;;;;;;26.24;38.66;100331.50;4933340;28;7300;-78
2022/10/05 14:10:45;;;;;;;;;;;;;;;26.23;38.58;100323.63;4940949;28;6996;-81
2022/10/05 14:13:45;;;;;;;;;;;;;;;26.26;38.62;100326.19;4938044;28;7036;-77
2022/10/05 14:16:25;;;;;;;;;;;;;;;26.27;38.59;100327.91;4939926;28;7463;-77
2022/10/05 14:19:03;;;;;;;;;;;;;;;26.29;38.59;100334.03;4942274;28;7425;-78
2022/10/05 14:21:41;;;;;;;;;;;;;;;26.30;38.75;100333.13;4938020;28;6986;-77
2022/10/05 14:24:35;;;;;;;;;;;;;;;26.30;38.56;100343.63;4921999;28;8606;-78
2022/10/05 14:27:21;;;;;;;;;;;;;;;26.32;39.01;100336.59;4935275;28;7195;-78
2022/10/05 14:30:17;;;;;;;;;;;;;;;26.33;38.73;100338.31;4938614;28;7074;-79
2022/10/05 14:33:15;;;;;;;;;;;;;;;26.34;38.83;100334.78;4917872;29;13312;-78
2022/10/05 14:35:48;;;;;;;;;;;;;;;26.37;39.32;100347.91;4929705;28;6994;-77
2022/10/05 14:38:29;;;;;;;;;;;;;;;26.46;39.13;100344.22;4939337;28;7267;-76
2022/10/05 14:41:15;;;;;;;;;;;;;;;26.70;39.17;100348.13;4937213;28;8108;-77
2022/10/05 14:43:49;;;;;;;;;;;;;;;26.95;38.70;100345.03;4940869;28;7253;-76
2022/10/05 14:46:15;;;;;;;;;;;;;;;27.17;38.60;100340.16;4945083;28;7206;-77
2022/10/05 14:48:43;;;;;;;;;;;;;;;27.52;38.33;100348.13;4944388;28;7392;-76